Time;durP1;ratioP1;P1;durP2;ratioP2;P2;SDS_P1;SDS_P2;PMS_P1;PMS_P2;Temp;Humidity;BMP_temperature;BMP_pressure;BME280_temperature;BME280_humidity;BME280_pressure;Samples;Min_cycle;Max_cycle;Signal;HPM_P1;HPM_P2
2024/02/19 00:00:50;;;;;;;;;7.67;7.67;;;;;17.74;100.00;102511.41;2112135;27;46383;-51
2024/02/19 00:01:50;;;;;;;;;7.00;6.75;;;;;17.71;100.00;102512.34;2112867;27;46973;-53
2024/02/19 00:02:51;;;;;;;;;10.33;10.00;;;;;17.64;100.00;102513.38;2112990;27;46386;-51
2024/02/19 00:03:51;;;;;;;;;8.67;8.33;;;;;17.71;100.00;102522.22;2111744;27;46918;-54
2024/02/19 00:04:52;;;;;;;;;9.33;8.67;;;;;17.70;100.00;102515.97;2112471;27;46162;-50
2024/02/19 00:05:52;;;;;;;;;8.33;8.33;;;;;17.70;100.00;102515.97;2113560;27;45823;-50
2024/02/19 00:06:53;;;;;;;;;8.33;8.00;;;;;17.68;100.00;102515.09;2112290;27;46566;-53
2024/02/19 00:07:53;;;;;;;;;9.33;9.00;;;;;17.65;100.00;102510.66;2113364;27;46800;-51
2024/02/19 00:08:53;;;;;;;;;14.33;9.67;;;;;17.66;100.00;102514.25;2112776;27;48805;-54
2024/02/19 00:09:54;;;;;;;;;8.33;8.33;;;;;17.65;100.00;102516.00;2112479;27;46598;-54
2024/02/19 00:10:54;;;;;;;;;10.00;10.00;;;;;17.61;100.00;102506.28;2112188;27;46714;-51
2024/02/19 00:11:54;;;;;;;;;9.00;8.00;;;;;17.63;100.00;102503.56;2113244;27;46502;-52
2024/02/19 00:12:55;;;;;;;;;10.00;10.00;;;;;17.69;100.00;102506.16;2110297;27;46200;-54
2024/02/19 00:13:57;;;;;;;;;8.67;7.67;;;;;17.61;100.00;102500.91;2112821;27;46343;-57
2024/02/19 00:14:57;;;;;;;;;9.50;9.50;;;;;17.65;100.00;102507.06;2112682;27;46303;-53
2024/02/19 00:15:57;;;;;;;;;12.67;9.00;;;;;17.63;100.00;102495.50;2112648;27;46354;-58
2024/02/19 00:16:58;;;;;;;;;10.67;9.67;;;;;17.62;100.00;102499.97;2112624;27;46195;-54
2024/02/19 00:17:58;;;;;;;;;9.00;8.00;;;;;17.59;100.00;102501.84;2112082;27;46535;-51
2024/02/19 00:18:59;;;;;;;;;9.00;8.00;;;;;17.56;100.00;102508.19;2113666;27;46171;-50
2024/02/19 00:20:01;;;;;;;;;7.00;6.33;;;;;17.56;100.00;102507.31;2111759;27;46307;-52
2024/02/19 00:21:02;;;;;;;;;10.25;9.50;;;;;17.60;100.00;102511.69;2111724;27;46546;-50
2024/02/19 00:22:02;;;;;;;;;12.25;8.75;;;;;17.60;100.00;102511.69;2112495;27;47024;-52
2024/02/19 00:23:03;;;;;;;;;10.67;10.00;;;;;17.64;100.00;102508.00;2113290;27;46277;-52
2024/02/19 00:24:04;;;;;;;;;12.00;10.00;;;;;17.63;100.00;102511.59;2113334;27;45965;-52
2024/02/19 00:25:05;;;;;;;;;10.50;9.00;;;;;17.64;100.00;102518.72;2111879;27;46881;-53
2024/02/19 00:26:05;;;;;;;;;10.00;9.33;;;;;17.57;100.00;102511.75;2112055;27;46383;-50
2024/02/19 00:27:07;;;;;;;;;10.00;8.00;;;;;17.55;100.00;102511.78;2113544;27;46770;-53
2024/02/19 00:28:09;;;;;;;;;12.00;9.25;;;;;17.50;100.00;102508.31;2111354;27;47526;-54
2024/02/19 00:29:10;;;;;;;;;8.75;8.75;;;;;17.60;100.00;102504.50;2112879;27;46699;-51
2024/02/19 00:30:11;;;;;;;;;10.50;8.25;;;;;17.61;100.00;102511.63;2110449;27;46663;-53
2024/02/19 00:31:12;;;;;;;;;7.00;7.00;;;;;17.50;100.00;102504.75;2112034;27;46923;-54
2024/02/19 00:32:12;;;;;;;;;9.00;9.00;;;;;17.51;100.00;102517.25;2097257;28;46861;-53
2024/02/19 00:33:12;;;;;;;;;9.00;8.00;;;;;17.51;100.00;102511.88;2095501;28;46307;-51
2024/02/19 00:34:13;;;;;;;;;11.00;8.00;;;;;17.50;100.00;102520.84;2104359;28;45611;-53
2024/02/19 00:35:13;;;;;;;;;9.00;8.67;;;;;17.52;100.00;102522.56;2104635;28;46509;-53
2024/02/19 00:36:14;;;;;;;;;5.67;4.33;;;;;17.57;100.00;102514.44;2104270;27;46274;-52
2024/02/19 00:37:14;;;;;;;;;8.00;8.00;;;;;17.67;100.00;102517.81;2104777;28;46684;-52
2024/02/19 00:38:14;;;;;;;;;10.00;7.33;;;;;17.67;100.00;102523.19;2104358;27;46940;-53
2024/02/19 00:39:15;;;;;;;;;10.00;9.67;;;;;17.69;100.00;102516.00;2104763;27;46303;-51
2024/02/19 00:40:15;;;;;;;;;9.00;8.00;;;;;17.60;100.00;102514.38;2104425;27;46120;-51
2024/02/19 00:41:18;;;;;;;;;7.00;7.00;;;;;17.67;100.00;102518.69;2104489;27;46325;-50
2024/02/19 00:42:19;;;;;;;;;8.75;8.75;;;;;17.67;100.00;102525.88;2104131;28;46626;-48
2024/02/19 00:43:19;;;;;;;;;10.33;9.67;;;;;17.54;100.00;102518.09;2104704;27;46719;-49
2024/02/19 00:44:20;;;;;;;;;7.00;7.00;;;;;17.65;100.00;102523.19;2104841;28;46351;-53
2024/02/19 00:45:21;;;;;;;;;12.25;10.25;;;;;17.74;100.00;102520.34;2104737;28;45914;-54
2024/02/19 00:46:21;;;;;;;;;10.00;10.00;;;;;17.68;100.00;102524.94;2104469;28;46731;-51
2024/02/19 00:47:22;;;;;;;;;8.33;8.00;;;;;17.89;100.00;102521.78;2104454;27;46692;-53
2024/02/19 00:48:22;;;;;;;;;8.00;7.67;;;;;17.71;100.00;102516.84;2103397;28;46599;-53
2024/02/19 00:49:22;;;;;;;;;9.67;7.33;;;;;17.71;100.00;102517.72;2098699;28;47747;-52
2024/02/19 00:50:23;;;;;;;;;9.00;9.00;;;;;17.71;100.00;102520.41;2099693;28;46519;-50
2024/02/19 00:51:23;;;;;;;;;8.33;7.00;;;;;17.73;100.00;102515.88;2104119;27;46566;-50
2024/02/19 00:52:23;;;;;;;;;7.00;7.00;;;;;17.94;100.00;102520.78;2104779;28;46253;-50
2024/02/19 00:53:24;;;;;;;;;7.00;7.00;;;;;17.70;100.00;102515.97;2104729;28;46219;-49
2024/02/19 00:54:24;;;;;;;;;8.00;8.00;;;;;17.76;100.00;102517.59;2104360;28;46260;-52
2024/02/19 00:55:24;;;;;;;;;8.33;7.00;;;;;17.82;100.00;102517.50;2104259;28;46625;-52
2024/02/19 00:56:25;;;;;;;;;13.00;9.33;;;;;17.84;100.00;102511.16;2104381;27;45400;-51
2024/02/19 00:57:25;;;;;;;;;12.00;10.00;;;;;17.79;100.00;102512.19;2104533;28;46302;-51
2024/02/19 00:58:25;;;;;;;;;11.00;10.00;;;;;17.80;100.00;102511.28;2104257;27;46596;-50
2024/02/19 00:59:26;;;;;;;;;9.33;9.00;;;;;17.77;100.00;102509.50;2104592;28;46238;-50
2024/02/19 01:00:26;;;;;;;;;10.67;10.67;;;;;17.78;100.00;102516.66;2104435;28;46700;-50
2024/02/19 01:01:27;;;;;;;;;10.33;10.00;;;;;17.79;100.00;102518.44;2104947;27;46493;-51
2024/02/19 01:02:28;;;;;;;;;12.00;10.25;;;;;17.74;100.00;102509.59;2104253;28;46512;-53
2024/02/19 01:03:28;;;;;;;;;9.67;9.67;;;;;17.81;100.00;102510.34;2097795;28;46292;-52
2024/02/19 01:04:28;;;;;;;;;7.67;7.67;;;;;17.68;100.00;102511.53;2096455;28;46790;-52
2024/02/19 01:05:31;;;;;;;;;12.00;11.00;;;;;17.73;100.00;102512.31;2104257;28;46050;-52
2024/02/19 01:06:32;;;;;;;;;11.00;9.75;;;;;17.83;100.00;102509.38;2104361;28;46727;-53
2024/02/19 01:07:32;;;;;;;;;10.33;10.33;;;;;17.82;100.00;102510.31;2104335;28;46917;-52
2024/02/19 01:08:32;;;;;;;;;5.67;5.67;;;;;17.83;100.00;102513.88;2104613;27;45596;-53
2024/02/19 01:09:33;;;;;;;;;12.33;10.00;;;;;17.80;100.00;102511.28;2104361;28;46673;-50
2024/02/19 01:10:34;;;;;;;;;13.25;12.75;;;;;17.80;100.00;102511.28;2104112;28;46544;-49
2024/02/19 01:11:34;;;;;;;;;14.00;11.00;;;;;17.84;100.00;102511.16;2104162;27;46257;-53
2024/02/19 01:12:35;;;;;;;;;13.33;13.33;;;;;17.73;100.00;102507.84;2104271;28;46758;-53
2024/02/19 01:13:35;;;;;;;;;15.33;12.67;;;;;17.75;100.00;102503.31;2098319;28;46575;-50
2024/02/19 01:14:36;;;;;;;;;10.33;10.00;;;;;17.80;100.00;102508.59;2099129;28;46609;-52
2024/02/19 01:15:36;;;;;;;;;11.00;10.33;;;;;17.84;100.00;102494.16;2104293;27;46627;-54
2024/02/19 01:16:37;;;;;;;;;11.67;11.67;;;;;17.72;100.00;102506.06;2104187;27;46638;-54
2024/02/19 01:17:37;;;;;;;;;10.33;10.33;;;;;17.69;100.00;102502.56;2086414;28;46725;-52
2024/02/19 01:18:38;;;;;;;;;10.00;10.00;;;;;17.70;100.00;102504.34;2086130;28;46797;-53
2024/02/19 01:19:41;;;;;;;;;11.00;10.33;;;;;17.73;100.00;102512.31;2102933;27;46347;-52
2024/02/19 01:20:41;;;;;;;;;11.75;10.00;;;;;17.76;100.00;102498.81;2104191;27;46372;-53
2024/02/19 01:21:41;;;;;;;;;14.00;13.67;;;;;17.84;100.00;102503.09;2104241;28;47027;-52
2024/02/19 01:22:42;;;;;;;;;11.00;10.33;;;;;17.71;100.00;102509.66;2104576;27;46249;-52
2024/02/19 01:23:42;;;;;;;;;9.67;9.67;;;;;17.71;100.00;102507.00;2104499;27;47160;-51
2024/02/19 01:24:42;;;;;;;;;9.67;9.00;;;;;17.65;100.00;102516.00;2104394;27;46710;-55
2024/02/19 01:25:43;;;;;;;;;11.33;10.33;;;;;17.57;100.00;102512.63;2105172;27;46339;-55
2024/02/19 01:26:45;;;;;;;;;10.67;10.67;;;;;17.62;100.00;102509.84;2104248;27;46853;-53
2024/02/19 01:27:45;;;;;;;;;9.25;9.25;;;;;17.53;100.00;102513.63;2104041;27;46420;-53
2024/02/19 01:28:47;;;;;;;;;5.67;5.33;;;;;17.66;100.00;102522.31;2104061;27;46268;-53
2024/02/19 01:29:48;;;;;;;;;10.25;9.25;;;;;17.68;100.00;102508.84;2104190;28;46642;-54
2024/02/19 01:30:49;;;;;;;;;13.00;12.25;;;;;17.59;100.00;102523.34;2103331;27;46364;-53
2024/02/19 01:31:50;;;;;;;;;10.67;9.33;;;;;17.54;100.00;102515.41;2105767;27;46367;-53
2024/02/19 01:32:51;;;;;;;;;7.50;7.50;;;;;17.56;100.00;102516.25;2112032;27;46759;-52
2024/02/19 01:33:51;;;;;;;;;9.67;9.67;;;;;17.58;100.00;102516.19;2112342;27;46482;-47
2024/02/19 01:34:51;;;;;;;;;10.67;10.67;;;;;17.71;100.00;102509.66;2112437;27;46781;-51
2024/02/19 01:35:52;;;;;;;;;11.00;10.00;;;;;17.67;100.00;102513.31;2109546;27;46725;-51
2024/02/19 01:36:52;;;;;;;;;11.00;10.00;;;;;17.68;100.00;102507.03;2112224;27;46271;-49
2024/02/19 01:37:52;;;;;;;;;11.00;10.00;;;;;17.74;100.00;102508.72;2112252;27;46402;-52
2024/02/19 01:38:53;;;;;;;;;13.00;12.00;;;;;17.68;100.00;102506.16;2112058;27;46229;-52
2024/02/19 01:39:53;;;;;;;;;10.00;9.00;;;;;17.70;100.00;102507.91;2094084;28;46453;-48
2024/02/19 01:40:53;;;;;;;;;12.00;10.00;;;;;17.69;100.00;102505.25;2094174;28;46825;-50
2024/02/19 01:41:55;;;;;;;;;12.67;12.00;;;;;17.69;100.00;102510.63;2112294;27;47087;-51
2024/02/19 01:43:02;;;;;;;;;14.25;12.50;;;;;17.72;100.00;102514.13;2112471;27;45763;-52
2024/02/19 01:44:04;;;;;;;;;10.75;10.25;;;;;17.70;100.00;102512.41;2111217;27;46673;-50
2024/02/19 01:45:07;;;;;;;;;12.50;10.00;;;;;17.69;100.00;102516.00;2111621;27;46445;-49
2024/02/19 01:46:08;;;;;;;;;10.50;10.50;;;;;17.67;100.00;102517.81;2111847;27;46463;-53
2024/02/19 01:47:09;;;;;;;;;15.50;13.00;;;;;17.69;100.00;102511.50;2111826;27;47241;-54
2024/02/19 01:48:10;;;;;;;;;7.00;6.75;;;;;17.70;100.00;102515.97;2111968;27;47028;-52
2024/02/19 01:49:11;;;;;;;;;15.67;10.00;;;;;17.71;100.00;102523.09;2111721;27;47000;-48
2024/02/19 01:50:11;;;;;;;;;13.25;11.50;;;;;17.70;100.00;102505.22;2111967;27;46416;-53
2024/02/19 01:51:15;;;;;;;;;10.33;9.33;;;;;17.70;100.00;102515.09;2107182;27;46366;-50
2024/02/19 01:52:16;;;;;;;;;8.50;7.25;;;;;17.72;100.00;102514.13;2107763;27;46740;-53
2024/02/19 01:53:17;;;;;;;;;10.25;8.75;;;;;17.70;100.00;102512.41;2110508;27;46466;-51
2024/02/19 01:54:18;;;;;;;;;9.33;8.67;;;;;17.70;100.00;102512.41;2112236;27;46916;-48
2024/02/19 01:55:20;;;;;;;;;11.00;10.00;;;;;17.70;100.00;102504.34;2112255;27;47025;-52
2024/02/19 01:56:21;;;;;;;;;14.00;11.75;;;;;17.68;100.00;102509.72;2112018;27;46385;-51
2024/02/19 01:57:22;;;;;;;;;12.00;10.25;;;;;17.69;100.00;102510.63;2111854;27;46527;-52
2024/02/19 01:58:22;;;;;;;;;12.00;9.33;;;;;17.66;100.00;102514.25;2111991;27;46573;-52
2024/02/19 01:59:25;;;;;;;;;10.67;9.00;;;;;17.68;100.00;102515.09;2111994;27;46666;-51
2024/02/19 02:00:27;;;;;;;;;11.00;8.75;;;;;17.67;100.00;102512.44;2112038;27;46485;-51
2024/02/19 02:01:28;;;;;;;;;9.25;7.00;;;;;17.66;100.00;102511.56;2108235;27;46115;-53
2024/02/19 02:02:28;;;;;;;;;10.67;10.67;;;;;17.56;100.00;102510.00;2107362;27;46870;-51
2024/02/19 02:03:30;;;;;;;;;9.33;8.00;;;;;17.56;100.00;102508.19;2111984;27;46582;-49
2024/02/19 02:04:30;;;;;;;;;10.75;9.25;;;;;17.51;100.00;102506.50;2112431;27;46669;-51
2024/02/19 02:05:31;;;;;;;;;8.33;7.33;;;;;17.59;100.00;102504.53;2111770;27;46249;-49
2024/02/19 02:06:33;;;;;;;;;7.33;7.33;;;;;17.63;100.00;102504.44;2112044;27;46656;-51
2024/02/19 02:07:33;;;;;;;;;8.25;7.00;;;;;17.64;100.00;102495.44;2112296;27;46274;-50
2024/02/19 02:08:39;;;;;;;;;7.67;7.67;;;;;17.65;100.00;102502.59;2111868;27;46355;-51
2024/02/19 02:09:39;;;;;;;;;10.00;9.00;;;;;17.67;100.00;102494.53;2111795;27;46704;-52
2024/02/19 02:10:40;;;;;;;;;6.33;6.33;;;;;17.76;100.00;102496.13;2109609;27;46261;-54
2024/02/19 02:11:40;;;;;;;;;8.00;8.00;;;;;17.87;100.00;102489.59;2112070;27;46491;-52
2024/02/19 02:12:40;;;;;;;;;8.67;8.67;;;;;17.64;100.00;102492.78;2112010;27;46395;-53
2024/02/19 02:13:41;;;;;;;;;6.33;6.33;;;;;17.60;100.00;102491.09;2111925;27;46799;-50
2024/02/19 02:14:41;;;;;;;;;8.00;8.00;;;;;17.64;100.00;102497.25;2111924;27;46627;-53
2024/02/19 02:15:41;;;;;;;;;9.67;8.00;;;;;17.66;100.00;102492.75;2111875;27;46356;-51
2024/02/19 02:16:42;;;;;;;;;8.00;8.00;;;;;17.67;100.00;102496.34;2111231;27;46317;-50
2024/02/19 02:17:43;;;;;;;;;8.67;7.33;;;;;17.66;100.00;102487.41;2112338;27;46302;-54
2024/02/19 02:18:44;;;;;;;;;7.50;7.50;;;;;17.67;100.00;102496.34;2111486;27;46408;-50
2024/02/19 02:19:44;;;;;;;;;8.00;8.00;;;;;17.67;100.00;102496.34;2111189;27;46729;-51
2024/02/19 02:20:44;;;;;;;;;9.00;7.00;;;;;17.59;100.00;102496.50;2112385;27;46238;-52
2024/02/19 02:21:45;;;;;;;;;8.00;8.00;;;;;17.64;100.00;102500.81;2111736;27;46411;-53
2024/02/19 02:22:48;;;;;;;;;7.00;6.67;;;;;17.63;100.00;102491.00;2093766;28;46545;-51
2024/02/19 02:23:48;;;;;;;;;8.50;7.00;;;;;17.65;100.00;102493.66;2095046;27;46940;-51
2024/02/19 02:24:48;;;;;;;;;4.33;2.00;;;;;17.51;100.00;102485.91;2111413;27;46502;-52
2024/02/19 02:25:49;;;;;;;;;8.33;6.67;;;;;17.53;100.00;102500.22;2112163;27;46867;-53
2024/02/19 02:26:49;;;;;;;;;10.00;8.00;;;;;17.82;100.00;102496.00;2090678;28;46334;-51
2024/02/19 02:27:49;;;;;;;;;7.67;7.67;;;;;17.90;100.00;102494.88;2101897;28;46428;-52
2024/02/19 02:28:50;;;;;;;;;9.00;8.00;;;;;17.90;100.00;102494.88;2115413;27;46326;-52
2024/02/19 02:29:50;;;;;;;;;11.00;8.33;;;;;17.93;100.00;102496.63;2111712;27;46409;-52
2024/02/19 02:30:50;;;;;;;;;8.33;8.33;;;;;17.90;100.00;102496.69;2111873;27;46884;-54
2024/02/19 02:31:51;;;;;;;;;6.33;6.33;;;;;17.92;100.00;102490.38;2112203;27;46426;-53
2024/02/19 02:32:55;;;;;;;;;8.00;8.00;;;;;17.74;100.00;102492.59;2111646;27;46300;-53
2024/02/19 02:33:55;;;;;;;;;7.25;7.25;;;;;17.70;100.00;102491.78;2111984;27;47111;-53
2024/02/19 02:34:56;;;;;;;;;5.00;5.00;;;;;17.70;100.00;102488.22;2111393;27;46325;-50
2024/02/19 02:35:56;;;;;;;;;7.00;7.00;;;;;17.62;100.00;102489.25;2112624;27;46151;-52
2024/02/19 02:36:56;;;;;;;;;7.33;7.00;;;;;17.67;100.00;102493.66;2112028;27;45107;-52
2024/02/19 02:37:59;;;;;;;;;8.33;8.33;;;;;17.72;100.00;102494.44;2111563;27;46197;-53
2024/02/19 02:39:00;;;;;;;;;5.50;5.50;;;;;17.73;100.00;102490.84;2111565;27;47130;-54
2024/02/19 02:40:00;;;;;;;;;6.67;6.33;;;;;17.72;100.00;102489.94;2098661;28;46413;-54
2024/02/19 02:41:00;;;;;;;;;7.00;7.00;;;;;17.71;100.00;102493.56;2098625;28;46434;-52
2024/02/19 02:42:01;;;;;;;;;6.33;6.33;;;;;17.70;100.00;102490.91;2111805;27;46662;-49
2024/02/19 02:43:02;;;;;;;;;6.33;6.33;;;;;17.65;100.00;102486.47;2112063;27;46635;-51
2024/02/19 02:44:03;;;;;;;;;8.75;7.00;;;;;17.66;100.00;102492.75;2110978;27;46733;-50
2024/02/19 02:45:03;;;;;;;;;10.00;7.00;;;;;17.67;100.00;102496.34;2110474;27;46353;-52
2024/02/19 02:46:04;;;;;;;;;6.00;5.33;;;;;17.66;100.00;102492.75;2111662;27;46272;-50
2024/02/19 02:47:04;;;;;;;;;7.00;6.33;;;;;17.65;100.00;102496.34;2111925;27;45330;-48
2024/02/19 02:48:06;;;;;;;;;7.67;6.67;;;;;17.63;100.00;102485.63;2111800;27;46586;-49
2024/02/19 02:49:06;;;;;;;;;7.00;7.00;;;;;17.58;100.00;102495.59;2065489;28;46951;-51
2024/02/19 02:50:07;;;;;;;;;7.33;6.33;;;;;17.50;100.00;102485.94;2065365;28;46792;-52
2024/02/19 02:51:07;;;;;;;;;5.67;5.67;;;;;17.52;100.00;102485.00;2111376;27;46338;-52
2024/02/19 02:52:07;;;;;;;;;8.67;8.33;;;;;17.51;100.00;102490.41;2111657;27;46691;-51
2024/02/19 02:53:07;;;;;;;;;26.00;23.00;;;;;17.52;100.00;102493.03;2112139;27;46250;-50
2024/02/19 02:54:08;;;;;;;;;28.00;22.67;;;;;17.45;100.00;102488.75;2111268;27;46297;-53
2024/02/19 02:55:08;;;;;;;;;19.33;17.00;;;;;17.49;100.00;102495.81;2112095;27;46968;-49
2024/02/19 02:56:17;;;;;;;;;22.33;19.67;;;;;17.51;100.00;102485.91;2111176;27;46405;-51
2024/02/19 02:57:17;;;;;;;;;22.25;20.00;;;;;17.51;100.00;102501.13;2103095;28;46627;-51
2024/02/19 02:58:18;;;;;;;;;22.00;18.00;;;;;17.50;100.00;102488.63;2102487;27;46661;-51
2024/02/19 02:59:18;;;;;;;;;13.00;11.33;;;;;17.61;100.00;102491.97;2111882;27;46605;-50
2024/02/19 03:00:18;;;;;;;;;13.00;10.00;;;;;17.62;100.00;102496.41;2110136;27;46248;-51
2024/02/19 03:01:29;;;;;;;;;18.00;17.00;;;;;17.60;100.00;102495.56;2112343;27;46608;-47
2024/02/19 03:02:32;;;;;;;;;17.25;17.25;;;;;17.61;100.00;102497.34;2111147;27;46968;-51
2024/02/19 03:03:33;;;;;;;;;16.25;13.50;;;;;17.54;100.00;102493.03;2111480;27;46759;-50
2024/02/19 03:04:33;;;;;;;;;13.00;11.00;;;;;17.52;100.00;102493.03;2111506;27;46861;-48
2024/02/19 03:05:33;;;;;;;;;16.00;15.33;;;;;17.41;100.00;102489.75;2111485;27;46607;-53
2024/02/19 03:06:34;;;;;;;;;11.33;11.33;;;;;17.47;100.00;102486.03;2110302;27;46437;-50
2024/02/19 03:07:34;;;;;;;;;13.33;11.00;;;;;17.55;100.00;102486.75;2111455;27;46533;-53
2024/02/19 03:08:34;;;;;;;;;11.00;10.00;;;;;17.56;100.00;102488.50;2111749;27;46358;-53
2024/02/19 03:09:35;;;;;;;;;12.33;9.33;;;;;17.56;100.00;102494.75;2111227;27;46666;-49
2024/02/19 03:10:35;;;;;;;;;16.33;14.33;;;;;17.56;100.00;102493.88;2110453;27;46584;-50
2024/02/19 03:11:36;;;;;;;;;8.67;7.33;;;;;17.54;100.00;102490.34;2111774;27;47277;-54
2024/02/19 03:12:36;;;;;;;;;14.67;13.00;;;;;17.54;100.00;102493.91;2093532;28;46250;-50
2024/02/19 03:13:37;;;;;;;;;10.67;10.00;;;;;17.57;100.00;102495.66;2093804;28;46212;-52
2024/02/19 03:14:37;;;;;;;;;10.75;10.50;;;;;17.55;100.00;102498.38;2098882;28;46405;-50
2024/02/19 03:15:38;;;;;;;;;11.33;10.33;;;;;17.54;100.00;102493.91;2100466;28;46206;-49
2024/02/19 03:16:38;;;;;;;;;11.33;10.33;;;;;17.55;100.00;102503.75;2091493;28;46141;-53
2024/02/19 03:17:38;;;;;;;;;10.00;10.00;;;;;17.56;100.00;102508.19;2090514;28;46965;-51
2024/02/19 03:18:39;;;;;;;;;14.00;11.00;;;;;17.53;100.00;102501.97;2112634;27;46379;-52
2024/02/19 03:19:41;;;;;;;;;14.33;14.33;;;;;17.56;100.00;102508.19;2111670;27;46300;-50
2024/02/19 03:20:42;;;;;;;;;14.50;14.00;;;;;17.52;100.00;102503.78;2112160;27;46620;-50
2024/02/19 03:21:42;;;;;;;;;28.50;25.75;;;;;17.55;100.00;102497.50;2112688;27;46345;-52
2024/02/19 03:22:42;;;;;;;;;38.25;33.00;;;;;17.47;100.00;102500.31;2112800;27;46357;-51
2024/02/19 03:23:52;;;;;;;;;31.00;27.25;;;;;17.46;100.00;102503.94;2113672;27;46522;-52
2024/02/19 03:24:53;;;;;;;;;36.40;29.40;;;;;17.45;100.00;102499.47;2113007;27;46911;-53
2024/02/19 03:25:53;;;;;;;;;24.75;23.00;;;;;17.46;100.00;102500.38;2113192;27;46125;-49
2024/02/19 03:26:57;;;;;;;;;27.00;27.00;;;;;17.47;100.00;102511.06;2113181;27;46257;-53
2024/02/19 03:27:57;;;;;;;;;20.25;18.50;;;;;17.48;100.00;102503.91;2111605;27;46763;-51
2024/02/19 03:28:58;;;;;;;;;24.75;22.50;;;;;17.51;100.00;102509.19;2112823;27;46259;-48
2024/02/19 03:29:58;;;;;;;;;19.00;18.33;;;;;17.46;100.00;102503.94;2112717;27;46321;-50
2024/02/19 03:30:59;;;;;;;;;13.67;12.33;;;;;17.49;100.00;102505.66;2113431;27;46850;-49
2024/02/19 03:31:59;;;;;;;;;17.00;13.33;;;;;17.51;100.00;102506.50;2111547;27;46538;-50
2024/02/19 03:33:00;;;;;;;;;17.75;16.25;;;;;17.49;100.00;102506.53;2109365;27;46415;-51
2024/02/19 03:34:00;;;;;;;;;15.00;13.75;;;;;17.50;100.00;102507.41;2108382;27;47026;-49
2024/02/19 03:35:01;;;;;;;;;15.00;13.67;;;;;17.49;100.00;102505.66;2108213;27;46168;-52
2024/02/19 03:36:01;;;;;;;;;13.00;11.67;;;;;17.50;100.00;102497.56;2109459;27;46511;-53
2024/02/19 03:37:01;;;;;;;;;12.00;10.33;;;;;17.51;100.00;102509.19;2108612;27;46277;-53
2024/02/19 03:38:02;;;;;;;;;14.00;13.00;;;;;17.52;100.00;102513.63;2108210;27;46417;-50
2024/02/19 03:39:03;;;;;;;;;10.67;10.67;;;;;17.52;100.00;102509.16;2109436;27;46185;-50
2024/02/19 03:40:06;;;;;;;;;12.25;10.00;;;;;17.49;100.00;102513.72;2108354;27;46303;-51
2024/02/19 03:41:07;;;;;;;;;9.25;9.25;;;;;17.49;100.00;102500.28;2108374;27;46538;-50
2024/02/19 03:42:07;;;;;;;;;11.00;10.25;;;;;17.48;100.00;102501.22;2109689;27;46092;-54
2024/02/19 03:43:08;;;;;;;;;11.33;10.00;;;;;17.43;100.00;102503.13;2108830;27;46733;-54
2024/02/19 03:44:08;;;;;;;;;12.33;11.00;;;;;17.41;100.00;102494.22;2108802;27;46560;-53
2024/02/19 03:45:08;;;;;;;;;10.67;10.67;;;;;17.43;100.00;102497.75;2107924;27;47035;-52
2024/02/19 03:46:10;;;;;;;;;13.00;12.33;;;;;17.41;100.00;102491.53;2108526;27;46126;-52
2024/02/19 03:47:10;;;;;;;;;12.00;10.25;;;;;17.45;100.00;102498.59;2108944;27;46686;-52
2024/02/19 03:48:10;;;;;;;;;11.00;10.67;;;;;17.45;100.00;102503.97;2108841;27;46477;-54
2024/02/19 03:49:11;;;;;;;;;9.00;7.67;;;;;17.44;100.00;102504.88;2108303;27;46535;-52
2024/02/19 03:50:11;;;;;;;;;13.00;12.00;;;;;17.42;100.00;102498.69;2109315;27;46409;-52
2024/02/19 03:51:12;;;;;;;;;9.00;9.00;;;;;17.42;100.00;102498.69;2109039;27;46403;-53
2024/02/19 03:52:12;;;;;;;;;10.00;10.00;;;;;17.39;100.00;102498.72;2106987;27;46397;-51
2024/02/19 03:53:12;;;;;;;;;13.33;12.00;;;;;17.41;100.00;102504.97;2108817;27;45120;-52
2024/02/19 03:54:13;;;;;;;;;10.00;10.00;;;;;17.41;100.00;102500.47;2107710;27;46087;-52
2024/02/19 03:55:13;;;;;;;;;11.00;11.00;;;;;17.40;100.00;102498.69;2108822;27;46395;-51
2024/02/19 03:56:13;;;;;;;;;11.67;11.67;;;;;17.45;100.00;102503.97;2109068;27;46385;-53
2024/02/19 03:57:14;;;;;;;;;12.33;11.33;;;;;17.46;100.00;102500.38;2108991;27;46187;-51
2024/02/19 03:58:14;;;;;;;;;10.00;9.00;;;;;17.43;100.00;102505.81;2108276;27;46867;-53
2024/02/19 03:59:17;;;;;;;;;14.00;13.00;;;;;17.42;100.00;102501.38;2109037;27;46941;-54
2024/02/19 04:00:17;;;;;;;;;10.50;8.50;;;;;17.41;100.00;102499.59;2108475;27;46924;-53
2024/02/19 04:01:18;;;;;;;;;17.33;12.33;;;;;17.41;100.00;102500.47;2108413;27;46352;-53
2024/02/19 04:02:19;;;;;;;;;8.67;7.33;;;;;17.38;100.00;102502.31;2108187;27;46228;-54
2024/02/19 04:03:19;;;;;;;;;9.50;8.00;;;;;17.40;100.00;102497.81;2108777;27;46788;-50
2024/02/19 04:04:20;;;;;;;;;9.00;9.00;;;;;17.40;100.00;102504.06;2109699;27;45642;-53
2024/02/19 04:05:20;;;;;;;;;11.33;10.00;;;;;17.41;100.00;102495.09;2108529;27;46681;-54
2024/02/19 04:06:21;;;;;;;;;10.00;8.00;;;;;17.43;100.00;102493.28;2109172;27;46325;-50
2024/02/19 04:07:21;;;;;;;;;9.33;9.33;;;;;17.46;100.00;102503.94;2107406;27;46968;-53
2024/02/19 04:08:21;;;;;;;;;11.67;11.00;;;;;17.43;100.00;102500.44;2107088;27;46978;-53
2024/02/19 04:09:22;;;;;;;;;11.00;11.00;;;;;17.41;100.00;102499.59;2109389;27;46655;-54
2024/02/19 04:10:22;;;;;;;;;12.00;10.67;;;;;17.41;100.00;102497.78;2081984;28;46192;-52
2024/02/19 04:11:23;;;;;;;;;10.00;10.00;;;;;17.39;100.00;102504.97;2082384;28;46719;-53
2024/02/19 04:12:23;;;;;;;;;10.00;8.00;;;;;17.41;100.00;102504.97;2108384;27;46507;-51
2024/02/19 04:13:23;;;;;;;;;13.67;11.67;;;;;17.44;100.00;102499.53;2104568;27;46747;-52
2024/02/19 04:14:25;;;;;;;;;13.67;12.00;;;;;17.43;100.00;102503.13;2107717;27;46651;-53
2024/02/19 04:15:27;;;;;;;;;11.00;11.00;;;;;17.46;100.00;102503.94;2108907;27;46968;-51
2024/02/19 04:16:27;;;;;;;;;11.25;9.50;;;;;17.47;100.00;102502.13;2107961;27;46408;-53
2024/02/19 04:17:27;;;;;;;;;12.00;9.00;;;;;17.47;100.00;102507.50;2109209;27;46922;-50
2024/02/19 04:18:28;;;;;;;;;11.00;9.00;;;;;17.50;100.00;102504.75;2107360;27;45161;-49
2024/02/19 04:19:28;;;;;;;;;9.00;9.00;;;;;17.49;100.00;102498.50;2078346;28;46337;-51
2024/02/19 04:20:29;;;;;;;;;11.33;10.67;;;;;17.43;100.00;102504.00;2078542;28;46314;-51
2024/02/19 04:21:29;;;;;;;;;13.00;13.00;;;;;17.44;100.00;102502.22;2108146;27;46363;-55
2024/02/19 04:22:30;;;;;;;;;13.33;11.67;;;;;17.44;100.00;102497.72;2108817;27;46562;-52
2024/02/19 04:23:30;;;;;;;;;13.33;11.00;;;;;17.45;100.00;102499.47;2108403;27;46164;-51
2024/02/19 04:24:30;;;;;;;;;13.33;11.00;;;;;17.43;100.00;102492.38;2107679;27;46980;-52
2024/02/19 04:25:31;;;;;;;;;11.33;11.33;;;;;17.41;100.00;102503.16;2108478;27;45907;-49
2024/02/19 04:26:31;;;;;;;;;10.33;9.67;;;;;17.41;100.00;102500.47;2107936;27;46802;-51
2024/02/19 04:27:31;;;;;;;;;12.67;11.67;;;;;17.40;100.00;102500.47;2095906;28;46296;-51
2024/02/19 04:28:32;;;;;;;;;13.00;12.67;;;;;17.39;100.00;102507.66;2095545;28;46949;-53
2024/02/19 04:29:32;;;;;;;;;10.33;9.67;;;;;17.44;100.00;102511.13;2107993;27;46632;-53
2024/02/19 04:30:32;;;;;;;;;12.67;10.00;;;;;17.39;100.00;102501.41;2107260;27;46504;-51
2024/02/19 04:31:33;;;;;;;;;12.33;12.33;;;;;17.42;100.00;102506.72;2099474;28;46273;-53
2024/02/19 04:32:33;;;;;;;;;12.00;10.00;;;;;17.40;100.00;102512.09;2099458;28;46342;-50
2024/02/19 04:33:33;;;;;;;;;12.00;10.00;;;;;17.49;100.00;102506.53;2108923;27;46263;-52
2024/02/19 04:34:33;;;;;;;;;13.33;11.00;;;;;17.49;100.00;102511.03;2108474;27;46266;-50
2024/02/19 04:35:34;;;;;;;;;15.67;13.00;;;;;17.48;100.00;102511.94;2106850;27;46503;-51
2024/02/19 04:36:34;;;;;;;;;12.67;11.33;;;;;17.48;100.00;102520.88;2108735;27;46689;-50